createdAt,value
2022-08-26T00:01:44.224Z,31.63
2022-08-26T00:04:13.044Z,31.58
2022-08-26T00:06:42.501Z,32.45
2022-08-26T00:09:40.382Z,32.72
2022-08-26T00:12:12.153Z,30.75
2022-08-26T00:15:07.398Z,35.42
2022-08-26T00:17:35.360Z,35.80
2022-08-26T00:20:06.925Z,29.98
2022-08-26T00:22:34.769Z,31.63
2022-08-26T00:25:04.207Z,31.13
2022-08-26T00:27:35.701Z,26.97
2022-08-26T00:32:57.825Z,29.23
2022-08-26T00:35:27.976Z,30.10
2022-08-26T00:37:56.854Z,34.92
2022-08-26T00:40:36.319Z,37.05
2022-08-26T00:43:09.301Z,31.50
2022-08-26T00:45:45.883Z,28.50
2022-08-26T00:48:18.703Z,29.20
2022-08-26T00:50:54.922Z,31.65
2022-08-26T00:53:28.315Z,27.35
2022-08-26T00:56:08.789Z,23.85
2022-08-26T00:58:39.394Z,31.55
2022-08-26T01:01:11.665Z,31.30
2022-08-26T01:03:42.408Z,29.60
2022-08-26T01:06:12.962Z,27.30
2022-08-26T01:08:41.681Z,26.88
2022-08-26T01:11:35.171Z,28.73
2022-08-26T01:14:06.702Z,36.00
2022-08-26T01:16:37.127Z,26.30
2022-08-26T01:19:27.154Z,29.58
2022-08-26T01:22:10.332Z,24.38
2022-08-26T01:24:41.897Z,27.73
2022-08-26T01:27:13.686Z,24.23
2022-08-26T01:29:44.521Z,25.85
2022-08-26T01:32:16.353Z,22.77
2022-08-26T01:34:47.280Z,28.45
2022-08-26T01:37:27.725Z,27.05
2022-08-26T01:39:56.883Z,27.83
2022-08-26T01:42:26.149Z,28.45
2022-08-26T01:44:57.761Z,27.63
2022-08-26T01:47:28.075Z,27.70
2022-08-26T01:50:02.933Z,28.70
2022-08-26T01:52:34.123Z,29.42
2022-08-26T01:57:36.345Z,28.95
2022-08-26T02:00:08.318Z,27.88
2022-08-26T02:02:45.575Z,24.35
2022-08-26T02:05:17.633Z,29.85
2022-08-26T02:07:46.608Z,26.02
2022-08-26T02:10:15.418Z,26.15
2022-08-26T02:12:44.483Z,26.63
2022-08-26T02:15:13.143Z,30.02
2022-08-26T02:17:47.423Z,31.50
2022-08-26T02:20:19.773Z,27.25
2022-08-26T02:22:48.991Z,28.45
2022-08-26T02:26:02.267Z,25.83
2022-08-26T02:28:39.193Z,23.65
2022-08-26T02:31:34.014Z,24.45
2022-08-26T02:34:10.775Z,28.10
2022-08-26T02:36:38.924Z,28.48
2022-08-26T02:39:08.467Z,24.23
2022-08-26T02:41:44.073Z,24.90
2022-08-26T02:44:38.171Z,30.95
2022-08-26T02:47:08.540Z,27.20
2022-08-26T02:49:37.993Z,26.80
2022-08-26T02:52:07.194Z,30.23
2022-08-26T02:54:35.198Z,29.48
2022-08-26T02:57:03.925Z,25.42
2022-08-26T02:59:36.197Z,26.10
2022-08-26T03:02:04.065Z,21.50
2022-08-26T03:04:32.588Z,21.35
2022-08-26T03:07:01.297Z,25.83
2022-08-26T03:09:29.111Z,25.80
2022-08-26T03:11:58.062Z,28.92
2022-08-26T03:14:26.534Z,22.20
2022-08-26T03:16:55.007Z,27.25
2022-08-26T03:19:24.909Z,23.80
2022-08-26T03:21:58.059Z,18.92
2022-08-26T03:24:26.592Z,26.70
2022-08-26T03:26:54.372Z,26.92
2022-08-26T03:29:42.042Z,25.70
2022-08-26T03:32:09.877Z,26.58
2022-08-26T03:34:38.698Z,23.00
2022-08-26T03:37:06.817Z,25.88
2022-08-26T03:39:35.181Z,26.55
2022-08-26T03:42:03.176Z,26.30
2022-08-26T03:44:31.718Z,30.50
2022-08-26T03:47:00.932Z,26.73
2022-08-26T03:49:31.457Z,30.02
2022-08-26T03:51:59.938Z,27.17
2022-08-26T03:54:27.571Z,23.38
2022-08-26T03:56:55.416Z,28.27
2022-08-26T03:59:24.724Z,27.77
2022-08-26T04:01:52.698Z,26.98
2022-08-26T04:04:22.702Z,27.20
2022-08-26T04:06:59.539Z,24.67
2022-08-26T04:09:27.823Z,30.80
2022-08-26T04:11:57.578Z,23.25
2022-08-26T04:14:27.517Z,28.08
2022-08-26T04:17:24.982Z,25.83
2022-08-26T04:19:53.948Z,25.30
2022-08-26T04:22:24.417Z,24.40
2022-08-26T04:27:21.003Z,25.48
2022-08-26T04:29:55.286Z,25.80
2022-08-26T04:32:23.645Z,28.63
2022-08-26T04:34:51.312Z,25.85
2022-08-26T04:37:18.973Z,26.50
2022-08-26T04:39:51.426Z,27.35
2022-08-26T04:42:25.851Z,25.23
2022-08-26T04:44:53.996Z,26.40
2022-08-26T04:47:21.655Z,28.38
2022-08-26T04:49:49.449Z,30.02
2022-08-26T04:52:18.067Z,24.73
2022-08-26T04:54:46.049Z,27.08
2022-08-26T04:57:13.904Z,24.67
2022-08-26T04:59:41.827Z,22.10
2022-08-26T05:02:09.549Z,26.50
2022-08-26T05:04:37.483Z,26.77
2022-08-26T05:07:06.370Z,26.38
2022-08-26T05:09:34.346Z,24.08
2022-08-26T05:12:02.026Z,28.52
2022-08-26T05:14:31.266Z,30.42
2022-08-26T05:17:05.311Z,25.80
2022-08-26T05:19:33.241Z,24.63
2022-08-26T05:22:26.628Z,28.13
2022-08-26T05:24:54.546Z,26.52
2022-08-26T05:27:22.191Z,26.95
2022-08-26T05:29:54.510Z,30.50
2022-08-26T05:32:22.454Z,35.60
2022-08-26T05:34:55.561Z,27.23
2022-08-26T05:37:24.974Z,28.98
2022-08-26T05:39:56.013Z,26.38
2022-08-26T05:42:23.948Z,27.73
2022-08-26T05:44:55.733Z,30.25
2022-08-26T05:47:24.827Z,28.58
2022-08-26T05:49:53.043Z,32.88
2022-08-26T05:52:21.016Z,29.83
2022-08-26T05:54:52.593Z,30.77
2022-08-26T05:57:23.206Z,28.40
2022-08-26T05:59:52.025Z,29.52
2022-08-26T06:02:20.300Z,31.40
2022-08-26T06:05:13.853Z,26.23
2022-08-26T06:08:03.280Z,39.22
2022-08-26T06:10:33.147Z,31.30
2022-08-26T06:13:09.241Z,44.30
2022-08-26T06:15:45.993Z,32.78
2022-08-26T06:18:16.002Z,31.85
2022-08-26T06:20:54.596Z,24.13
2022-08-26T06:23:49.067Z,28.60
2022-08-26T06:26:17.401Z,29.65
2022-08-26T06:28:45.873Z,31.17
2022-08-26T06:31:17.133Z,30.90
2022-08-26T06:33:45.289Z,32.95
2022-08-26T06:36:27.594Z,30.27
2022-08-26T06:38:56.968Z,30.25
2022-08-26T06:41:26.014Z,24.80
2022-08-26T06:43:53.954Z,30.88
2022-08-26T06:46:22.148Z,20.65
2022-08-26T06:48:50.327Z,32.80
2022-08-26T06:51:24.865Z,34.00
2022-08-26T06:53:54.247Z,29.23
2022-08-26T06:56:24.683Z,30.63
2022-08-26T06:58:52.761Z,22.85
2022-08-26T07:01:32.326Z,30.48
2022-08-26T07:04:03.948Z,32.17
2022-08-26T07:06:40.707Z,22.52
2022-08-26T07:09:10.168Z,29.02
2022-08-26T07:11:39.443Z,23.60
2022-08-26T07:14:08.155Z,30.08
2022-08-26T07:16:36.459Z,21.23
2022-08-26T07:19:10.890Z,27.73
2022-08-26T07:21:41.713Z,31.95
2022-08-26T07:24:11.174Z,28.27
2022-08-26T07:26:43.137Z,24.90
2022-08-26T07:29:12.660Z,23.30
2022-08-26T07:31:42.784Z,30.77
2022-08-26T07:34:13.734Z,28.95
2022-08-26T07:36:42.068Z,30.33
2022-08-26T07:39:09.846Z,29.90
2022-08-26T07:41:37.631Z,19.90
2022-08-26T07:44:06.089Z,28.95
2022-08-26T07:46:36.391Z,30.80
2022-08-26T07:49:04.469Z,31.00
2022-08-26T07:51:32.789Z,26.60
2022-08-26T07:54:00.583Z,25.25
2022-08-26T07:56:29.653Z,26.45
2022-08-26T07:58:57.522Z,29.70
2022-08-26T08:01:27.046Z,26.92
2022-08-26T08:06:27.403Z,25.45
2022-08-26T08:08:57.366Z,42.55
2022-08-26T08:11:27.412Z,27.50
2022-08-26T08:13:56.896Z,26.98
2022-08-26T08:16:33.866Z,28.55
2022-08-26T08:19:02.885Z,30.48
2022-08-26T08:21:32.079Z,26.35
2022-08-26T08:24:00.106Z,23.30
2022-08-26T08:26:28.402Z,29.92
2022-08-26T08:29:23.034Z,23.55
2022-08-26T08:31:57.981Z,26.55
2022-08-26T08:34:28.845Z,27.38
2022-08-26T08:36:57.624Z,22.60
2022-08-26T08:39:26.429Z,27.75
2022-08-26T08:42:13.650Z,22.05
2022-08-26T08:44:52.231Z,24.85
2022-08-26T08:47:31.597Z,24.42
2022-08-26T08:50:25.857Z,25.58
2022-08-26T08:53:22.813Z,20.23
2022-08-26T08:56:05.444Z,19.90
2022-08-26T08:58:45.430Z,27.63
2022-08-26T09:01:28.369Z,24.67
2022-08-26T09:04:17.185Z,24.42
2022-08-26T09:06:49.491Z,21.27
2022-08-26T09:09:35.581Z,25.13
2022-08-26T09:12:05.165Z,23.45
2022-08-26T09:14:32.941Z,21.73
2022-08-26T09:17:08.801Z,22.63
2022-08-26T09:19:47.886Z,25.70
2022-08-26T09:22:48.708Z,21.40
2022-08-26T09:25:16.752Z,25.95
2022-08-26T09:27:52.098Z,23.75
2022-08-26T09:30:35.543Z,21.35
2022-08-26T09:33:10.837Z,20.17
2022-08-26T09:35:48.946Z,27.20
2022-08-26T09:38:26.844Z,31.23
2022-08-26T09:41:06.855Z,24.17
2022-08-26T09:43:37.152Z,24.60
2022-08-26T09:46:18.815Z,20.80
2022-08-26T09:48:46.695Z,25.83
2022-08-26T09:51:26.644Z,22.42
2022-08-26T09:53:58.029Z,25.33
2022-08-26T09:56:34.945Z,25.15
2022-08-26T09:59:08.571Z,21.05
2022-08-26T10:01:44.644Z,25.67
2022-08-26T10:04:26.740Z,22.95
2022-08-26T10:06:54.916Z,20.48
2022-08-26T10:09:26.004Z,16.92
2022-08-26T10:12:00.441Z,18.88
2022-08-26T10:14:33.635Z,20.75
2022-08-26T10:17:09.212Z,22.75
2022-08-26T10:19:56.626Z,27.20
2022-08-26T10:22:37.755Z,19.77
2022-08-26T10:25:09.509Z,21.90
2022-08-26T10:27:38.348Z,23.77
2022-08-26T10:30:20.944Z,23.67
2022-08-26T10:33:01.313Z,19.17
2022-08-26T10:35:31.047Z,21.33
2022-08-26T10:38:04.895Z,26.57
2022-08-26T10:40:55.377Z,21.00
2022-08-26T10:46:03.397Z,26.40
2022-08-26T10:48:53.076Z,24.42
2022-08-26T10:51:27.325Z,26.90
2022-08-26T10:54:17.375Z,22.45
2022-08-26T10:57:14.807Z,21.90
2022-08-26T11:00:00.256Z,21.40
2022-08-26T11:02:36.289Z,22.60
2022-08-26T11:05:13.786Z,19.58
2022-08-26T11:07:44.193Z,24.00
2022-08-26T11:10:38.185Z,21.52
2022-08-26T11:13:07.334Z,21.85
2022-08-26T11:15:38.318Z,26.10
2022-08-26T11:18:09.160Z,23.25
2022-08-26T11:20:41.789Z,25.38
2022-08-26T11:23:13.175Z,22.67
2022-08-26T11:25:56.288Z,24.85
2022-08-26T11:28:49.846Z,37.20
2022-08-26T11:31:26.764Z,26.45
2022-08-26T11:33:57.207Z,29.48
2022-08-26T11:36:37.573Z,26.40
2022-08-26T11:39:23.525Z,25.95
2022-08-26T11:42:08.134Z,21.17
2022-08-26T11:44:39.893Z,20.83
2022-08-26T11:47:11.412Z,27.52
2022-08-26T11:49:39.856Z,24.77
2022-08-26T11:52:09.488Z,22.67
2022-08-26T11:54:37.760Z,25.75
2022-08-26T11:57:09.417Z,23.33
2022-08-26T11:59:42.126Z,21.50
2022-08-26T12:02:16.611Z,20.90
2022-08-26T12:04:52.168Z,21.38
2022-08-26T12:07:25.416Z,20.52
2022-08-26T12:09:56.712Z,20.60
2022-08-26T12:12:34.796Z,22.67
2022-08-26T12:15:20.732Z,23.00
2022-08-26T12:17:54.383Z,24.73
2022-08-26T12:20:48.653Z,31.30
2022-08-26T12:23:36.509Z,23.88
2022-08-26T12:26:12.463Z,22.77
2022-08-26T12:29:19.752Z,23.33
2022-08-26T12:31:48.533Z,25.25
2022-08-26T12:34:18.439Z,22.75
2022-08-26T12:36:50.408Z,16.95
2022-08-26T12:39:38.190Z,19.42
2022-08-26T12:42:23.609Z,24.15
2022-08-26T12:45:06.729Z,23.10
2022-08-26T12:47:43.003Z,20.17
2022-08-26T12:50:18.667Z,19.42
2022-08-26T12:53:26.499Z,17.95
2022-08-26T12:56:05.480Z,20.70
2022-08-26T12:58:39.164Z,18.15
2022-08-26T13:01:07.145Z,19.42
2022-08-26T13:03:34.933Z,22.05
2022-08-26T13:06:31.631Z,22.00
2022-08-26T13:09:03.035Z,23.05
2022-08-26T13:11:41.333Z,22.05
2022-08-26T13:14:12.177Z,23.25
2022-08-26T13:16:47.381Z,24.30
2022-08-26T13:19:35.403Z,24.88
2022-08-26T13:22:05.536Z,23.50
2022-08-26T13:24:45.377Z,20.98
2022-08-26T13:27:15.358Z,24.98
2022-08-26T13:29:43.570Z,20.65
2022-08-26T13:32:11.736Z,26.75
2022-08-26T13:34:39.768Z,22.77
2022-08-26T13:37:07.948Z,27.77
2022-08-26T13:39:35.859Z,34.20
2022-08-26T13:42:04.124Z,24.52
2022-08-26T13:44:32.165Z,22.25
2022-08-26T13:47:00.239Z,28.15
2022-08-26T13:49:31.576Z,38.88
2022-08-26T13:52:04.071Z,33.70
2022-08-26T13:54:32.148Z,28.10
2022-08-26T13:57:00.097Z,27.95
2022-08-26T13:59:28.316Z,28.88
2022-08-26T14:01:56.638Z,26.52
2022-08-26T14:06:55.908Z,31.65
2022-08-26T14:09:27.109Z,25.75
2022-08-26T14:12:01.031Z,27.83
2022-08-26T14:14:30.531Z,23.83
2022-08-26T14:17:00.308Z,28.35
2022-08-26T14:19:32.374Z,29.80
2022-08-26T14:22:04.491Z,24.63
2022-08-26T14:24:35.448Z,23.38
2022-08-26T14:27:05.687Z,30.33
2022-08-26T14:29:33.690Z,29.67
2022-08-26T14:32:07.128Z,27.13
2022-08-26T14:34:35.074Z,27.67
2022-08-26T14:37:08.192Z,25.65
2022-08-26T14:39:40.234Z,26.77
2022-08-26T14:42:18.991Z,24.98
2022-08-26T14:44:58.576Z,34.33
2022-08-26T14:47:26.606Z,30.50
2022-08-26T14:49:58.097Z,29.02
2022-08-26T14:52:26.841Z,29.23
2022-08-26T14:55:03.313Z,25.50
2022-08-26T14:57:31.259Z,30.58
2022-08-26T15:00:02.903Z,29.50
2022-08-26T15:02:40.151Z,29.83
2022-08-26T15:05:08.965Z,28.58
2022-08-26T15:07:38.425Z,30.38
2022-08-26T15:10:11.581Z,27.67
2022-08-26T15:12:44.189Z,26.38
2022-08-26T15:15:14.194Z,28.43
2022-08-26T15:17:42.364Z,31.73
2022-08-26T15:20:13.285Z,28.98
2022-08-26T15:22:43.385Z,27.67
2022-08-26T15:25:11.734Z,25.05
2022-08-26T15:27:40.013Z,31.20
2022-08-26T15:30:12.023Z,26.33
2022-08-26T15:32:41.871Z,27.75
2022-08-26T15:35:10.335Z,32.90
2022-08-26T15:37:40.698Z,25.20
2022-08-26T15:40:10.114Z,26.73
2022-08-26T15:42:38.488Z,29.33
2022-08-26T15:45:07.026Z,25.05
2022-08-26T15:47:35.473Z,25.33
2022-08-26T15:50:23.126Z,31.45
2022-08-26T15:52:51.375Z,22.63
2022-08-26T15:55:19.250Z,27.20
2022-08-26T15:57:50.188Z,27.70
2022-08-26T16:00:18.479Z,24.17
2022-08-26T16:02:46.762Z,24.88
2022-08-26T16:05:14.607Z,29.65
2022-08-26T16:07:42.398Z,22.58
2022-08-26T16:10:10.648Z,28.63
2022-08-26T16:12:38.676Z,26.73
2022-08-26T16:15:07.115Z,28.35
2022-08-26T16:17:35.386Z,26.80
2022-08-26T16:20:05.289Z,23.73
2022-08-26T16:22:33.279Z,29.38
2022-08-26T16:25:01.036Z,27.02
2022-08-26T16:27:29.012Z,21.67
2022-08-26T16:29:56.899Z,26.95
2022-08-26T16:32:27.276Z,26.90
2022-08-26T16:34:58.682Z,32.83
2022-08-26T16:37:26.711Z,29.67
2022-08-26T16:39:54.641Z,24.13
2022-08-26T16:42:22.485Z,31.15
2022-08-26T16:44:51.960Z,27.35
2022-08-26T16:47:20.267Z,27.48
2022-08-26T16:49:48.244Z,24.20
2022-08-26T16:52:16.176Z,22.50
2022-08-26T16:54:44.376Z,24.67
2022-08-26T16:57:13.724Z,25.42
2022-08-26T16:59:44.847Z,25.25
2022-08-26T17:02:13.608Z,21.42
2022-08-26T17:04:46.146Z,26.17
2022-08-26T17:07:15.869Z,27.67
2022-08-26T17:09:47.397Z,26.90
2022-08-26T17:12:15.680Z,26.85
2022-08-26T17:14:55.486Z,29.10
2022-08-26T17:17:23.523Z,26.52
2022-08-26T17:20:01.588Z,29.60
2022-08-26T17:22:34.459Z,26.77
2022-08-26T17:25:12.101Z,30.45
2022-08-26T17:27:41.017Z,25.77
2022-08-26T17:30:10.020Z,26.60
2022-08-26T17:32:38.218Z,25.02
2022-08-26T17:35:07.018Z,31.77
2022-08-26T17:37:35.055Z,26.05
2022-08-26T17:42:34.523Z,29.15
2022-08-26T17:45:04.506Z,27.60
2022-08-26T17:47:33.065Z,23.65
2022-08-26T17:50:01.644Z,26.25
2022-08-26T17:52:30.745Z,26.35
2022-08-26T17:54:59.357Z,29.25
2022-08-26T17:57:27.577Z,28.17
2022-08-26T17:59:57.574Z,29.08
2022-08-26T18:02:25.694Z,26.23
2022-08-26T18:04:53.526Z,31.95
2022-08-26T18:07:21.272Z,30.90
2022-08-26T18:09:49.417Z,27.95
2022-08-26T18:12:19.045Z,33.90
2022-08-26T18:14:46.830Z,28.45
2022-08-26T18:17:15.223Z,30.60
2022-08-26T18:19:47.644Z,29.30
2022-08-26T18:22:15.826Z,29.30
2022-08-26T18:24:57.383Z,29.25
2022-08-26T18:27:40.648Z,33.75
2022-08-26T18:30:19.327Z,32.63
2022-08-26T18:32:57.647Z,35.15
2022-08-26T18:35:33.149Z,31.85
2022-08-26T18:38:12.423Z,31.33
2022-08-26T18:40:51.424Z,30.85
2022-08-26T18:43:27.677Z,33.78
2022-08-26T18:46:19.289Z,29.33
2022-08-26T18:49:03.437Z,33.03
2022-08-26T18:51:34.201Z,34.28
2022-08-26T18:54:08.168Z,34.30
2022-08-26T18:56:43.048Z,34.58
2022-08-26T18:59:16.420Z,33.78
2022-08-26T19:01:51.610Z,36.55
2022-08-26T19:04:25.612Z,33.55
2022-08-26T19:06:54.884Z,39.55
2022-08-26T19:09:23.578Z,32.60
2022-08-26T19:11:51.411Z,33.70
2022-08-26T19:14:21.487Z,39.55
2022-08-26T19:16:52.501Z,29.33
2022-08-26T19:19:24.684Z,33.25
2022-08-26T19:21:53.391Z,34.65
2022-08-26T19:24:22.347Z,32.40
2022-08-26T19:26:57.577Z,35.65
2022-08-26T19:29:33.988Z,34.10
2022-08-26T19:32:19.077Z,32.10
2022-08-26T19:35:15.733Z,28.83
2022-08-26T19:37:52.187Z,35.03
2022-08-26T19:40:56.324Z,30.23
2022-08-26T19:43:24.579Z,33.78
2022-08-26T19:45:52.885Z,36.95
2022-08-26T19:48:54.114Z,30.27
2022-08-26T19:51:31.437Z,30.48
2022-08-26T19:54:01.023Z,30.08
2022-08-26T19:56:29.378Z,32.53
2022-08-26T19:58:57.845Z,31.00
2022-08-26T20:01:26.367Z,36.88
2022-08-26T20:06:27.258Z,37.80
2022-08-26T20:08:56.292Z,33.17
2022-08-26T20:11:24.717Z,34.63
2022-08-26T20:13:52.405Z,35.30
2022-08-26T20:16:20.221Z,35.47
2022-08-26T20:19:09.759Z,40.47
2022-08-26T20:21:40.248Z,30.77
2022-08-26T20:24:14.677Z,37.13
2022-08-26T20:26:45.036Z,37.50
2022-08-26T20:29:18.405Z,33.80
2022-08-26T20:31:47.989Z,43.38
2022-08-26T20:34:18.655Z,37.58
2022-08-26T20:39:18.399Z,37.20
2022-08-26T20:41:46.419Z,29.98
2022-08-26T20:44:15.897Z,40.53
2022-08-26T20:46:45.035Z,33.88
2022-08-26T20:49:19.805Z,29.98
2022-08-26T20:51:55.342Z,34.28
2022-08-26T20:54:29.266Z,38.25
2022-08-26T20:57:00.926Z,34.30
2022-08-26T20:59:29.407Z,35.45
2022-08-26T21:02:01.455Z,34.85
2022-08-26T21:04:31.827Z,39.97
2022-08-26T21:09:28.893Z,34.03
2022-08-26T21:12:00.309Z,34.53
2022-08-26T21:14:30.356Z,29.47
2022-08-26T21:17:00.453Z,38.67
2022-08-26T21:19:30.538Z,36.38
2022-08-26T21:22:00.775Z,33.60
2022-08-26T21:24:28.504Z,29.83
2022-08-26T21:26:56.758Z,37.75
2022-08-26T21:29:28.621Z,34.03
2022-08-26T21:31:58.005Z,34.47
2022-08-26T21:34:25.837Z,26.70
2022-08-26T21:36:53.879Z,34.20
2022-08-26T21:39:21.643Z,31.17
2022-08-26T21:41:49.516Z,31.20
2022-08-26T21:44:18.260Z,30.48
2022-08-26T21:46:46.646Z,31.13
2022-08-26T21:49:18.604Z,31.85
2022-08-26T21:51:48.628Z,31.00
2022-08-26T21:54:18.339Z,35.17
2022-08-26T21:56:50.367Z,33.88
2022-08-26T21:59:19.807Z,35.42
2022-08-26T22:01:49.370Z,33.08
2022-08-26T22:04:18.499Z,30.13
2022-08-26T22:06:49.410Z,33.08
2022-08-26T22:09:20.791Z,40.15
2022-08-26T22:11:49.468Z,34.95
2022-08-26T22:14:18.744Z,29.70
2022-08-26T22:16:50.532Z,37.17
2022-08-26T22:19:23.577Z,30.35
2022-08-26T22:21:54.688Z,31.95
2022-08-26T22:24:26.424Z,32.30
2022-08-26T22:26:55.313Z,34.92
2022-08-26T22:29:24.555Z,30.35
2022-08-26T22:31:52.676Z,25.55
2022-08-26T22:34:23.348Z,33.92
2022-08-26T22:36:51.291Z,37.83
2022-08-26T22:39:23.283Z,36.40
2022-08-26T22:41:52.625Z,32.13
2022-08-26T22:44:22.446Z,59.00
2022-08-26T22:46:54.408Z,32.70
2022-08-26T22:49:22.978Z,31.40
2022-08-26T22:51:51.385Z,35.50
2022-08-26T22:54:19.562Z,32.40
2022-08-26T22:56:47.443Z,34.15
2022-08-26T22:59:16.487Z,36.00
2022-08-26T23:01:44.968Z,41.20
2022-08-26T23:04:13.586Z,42.88
2022-08-26T23:06:47.835Z,34.78
2022-08-26T23:09:19.494Z,32.30
2022-08-26T23:11:48.628Z,31.48
2022-08-26T23:14:18.390Z,33.80
2022-08-26T23:16:47.550Z,29.85
2022-08-26T23:19:18.041Z,31.38
2022-08-26T23:21:46.297Z,37.58
2022-08-26T23:24:14.673Z,36.55
2022-08-26T23:26:43.530Z,30.42
2022-08-26T23:29:13.520Z,37.15
2022-08-26T23:31:43.189Z,34.27
2022-08-26T23:34:30.598Z,35.88
2022-08-26T23:37:00.231Z,31.95
2022-08-26T23:39:31.219Z,34.67
2022-08-26T23:42:01.913Z,40.17
2022-08-26T23:44:30.882Z,38.03
2022-08-26T23:46:59.175Z,32.95
2022-08-26T23:49:27.619Z,34.67
2022-08-26T23:52:14.236Z,45.92
2022-08-26T23:54:42.558Z,37.85
2022-08-26T23:57:13.291Z,39.28
2022-08-26T23:59:42.356Z,35.00
